createdAt,value
2023-03-08T00:00:55.369Z,0.00
2023-03-08T00:05:55.280Z,0.00
2023-03-08T00:10:55.237Z,0.00
2023-03-08T00:15:55.220Z,0.00
2023-03-08T00:20:55.118Z,0.00
2023-03-08T00:25:55.110Z,0.00
2023-03-08T00:30:54.988Z,0.00
2023-03-08T00:35:54.969Z,0.00
2023-03-08T00:40:54.964Z,0.00
2023-03-08T00:45:54.879Z,0.00
2023-03-08T00:50:54.774Z,0.00
2023-03-08T00:55:54.745Z,0.00
2023-03-08T01:00:54.792Z,0.00
2023-03-08T01:05:54.639Z,0.00
2023-03-08T01:10:54.590Z,0.00
2023-03-08T01:15:54.527Z,0.00
2023-03-08T01:20:54.481Z,0.00
2023-03-08T01:25:54.394Z,0.00
2023-03-08T01:30:54.358Z,0.00
2023-03-08T01:35:54.330Z,0.00
2023-03-08T01:40:54.234Z,0.00
2023-03-08T01:45:54.522Z,0.00
2023-03-08T01:50:54.117Z,0.00
2023-03-08T01:55:54.024Z,0.00
2023-03-08T02:00:54.017Z,0.00
2023-03-08T02:05:53.943Z,0.00
2023-03-08T02:10:53.958Z,0.00
2023-03-08T02:15:53.831Z,0.00
2023-03-08T02:20:53.759Z,0.00
2023-03-08T02:25:53.706Z,0.00
2023-03-08T02:30:53.689Z,0.00
2023-03-08T02:35:53.618Z,0.00
2023-03-08T02:40:53.543Z,0.00
2023-03-08T02:45:53.482Z,0.00
2023-03-08T02:50:53.757Z,0.00
2023-03-08T02:55:53.399Z,0.00
2023-03-08T03:00:53.301Z,0.00
2023-03-08T03:05:53.270Z,0.00
2023-03-08T03:10:53.261Z,0.00
2023-03-08T03:15:53.176Z,0.00
2023-03-08T03:20:53.099Z,0.00
2023-03-08T03:25:53.038Z,0.00
2023-03-08T03:30:53.039Z,0.00
2023-03-08T03:35:52.992Z,0.00
2023-03-08T03:40:52.950Z,0.00
2023-03-08T03:45:52.814Z,0.00
2023-03-08T03:50:52.758Z,0.00
2023-03-08T03:55:52.707Z,0.00
2023-03-08T04:00:52.773Z,0.00
2023-03-08T04:05:52.627Z,0.00
2023-03-08T04:10:52.643Z,0.00
2023-03-08T04:15:52.935Z,0.00
2023-03-08T04:20:52.571Z,0.00
2023-03-08T04:25:52.369Z,0.00
2023-03-08T04:30:52.320Z,0.00
2023-03-08T04:35:52.730Z,0.00
2023-03-08T04:40:52.316Z,0.00
2023-03-08T04:45:52.210Z,0.00
2023-03-08T04:50:52.141Z,0.00
2023-03-08T04:55:52.064Z,0.00
2023-03-08T05:00:51.995Z,0.00
2023-03-08T05:05:51.945Z,0.00
2023-03-08T05:10:51.894Z,1.00
2023-03-08T05:15:51.962Z,4.00
2023-03-08T05:20:51.741Z,11.00
2023-03-08T05:25:51.713Z,23.00
2023-03-08T05:30:51.658Z,48.00
2023-03-08T05:35:51.629Z,97.00
2023-03-08T05:40:51.516Z,186.00
2023-03-08T05:45:51.539Z,354.00
2023-03-08T05:50:51.404Z,507.00
2023-03-08T05:55:51.354Z,753.00
2023-03-08T06:00:51.295Z,1044.00
2023-03-08T06:05:51.203Z,1318.00
2023-03-08T06:10:51.157Z,1611.00
2023-03-08T06:15:51.111Z,1852.00
2023-03-08T06:20:51.061Z,1996.00
2023-03-08T06:25:51.007Z,2145.00
2023-03-08T06:30:50.956Z,2478.00
2023-03-08T06:35:51.003Z,2752.00
2023-03-08T06:40:50.781Z,2987.00
2023-03-08T06:45:50.796Z,3808.00
2023-03-08T06:50:50.691Z,3474.00
2023-03-08T06:55:50.646Z,2958.00
2023-03-08T07:00:50.560Z,3038.00
2023-03-08T07:05:50.541Z,3210.00
2023-03-08T07:10:50.453Z,3120.00
2023-03-08T07:15:50.459Z,3399.00
2023-03-08T07:20:50.320Z,3407.00
2023-03-08T07:25:50.307Z,3367.00
2023-03-08T07:30:50.208Z,3395.00
2023-03-08T07:35:50.244Z,3419.00
2023-03-08T07:40:50.136Z,3682.00
2023-03-08T07:45:50.085Z,3564.00
2023-03-08T07:50:50.009Z,3711.00
2023-03-08T07:55:49.968Z,4523.00
2023-03-08T08:00:49.874Z,5128.00
2023-03-08T08:05:49.843Z,5771.00
2023-03-08T08:10:49.771Z,6130.00
2023-03-08T08:15:49.799Z,7412.00
2023-03-08T08:20:49.703Z,9258.00
2023-03-08T08:25:50.578Z,8666.00
2023-03-08T08:30:49.562Z,7697.00
2023-03-08T08:35:49.522Z,7880.00
2023-03-08T08:40:49.490Z,7610.00
2023-03-08T08:45:49.502Z,7385.00
2023-03-08T08:50:49.384Z,7331.00
2023-03-08T08:55:49.273Z,7657.00
2023-03-08T09:00:49.230Z,7730.00
2023-03-08T09:05:49.156Z,7411.00
2023-03-08T09:10:49.206Z,7579.00
2023-03-08T09:15:49.075Z,6900.00
2023-03-08T09:20:49.065Z,7102.00
2023-03-08T09:25:48.971Z,7095.00
2023-03-08T09:30:48.834Z,6967.00
2023-03-08T09:35:49.754Z,6583.00
2023-03-08T09:40:48.748Z,6169.00
2023-03-08T09:45:48.771Z,6547.00
2023-03-08T09:50:48.754Z,6966.00
2023-03-08T09:55:48.738Z,8061.00
2023-03-08T10:00:48.537Z,8826.00
2023-03-08T10:05:48.395Z,8734.00
2023-03-08T10:10:48.387Z,9449.00
2023-03-08T10:15:48.248Z,9989.00
2023-03-08T10:20:48.216Z,9886.00
2023-03-08T10:25:48.131Z,11029.00
2023-03-08T10:30:48.149Z,10631.00
2023-03-08T10:35:48.037Z,9406.00
2023-03-08T10:40:48.024Z,10495.00
2023-03-08T10:45:47.931Z,8722.00
2023-03-08T10:50:47.845Z,6140.00
2023-03-08T10:55:47.826Z,4977.00
2023-03-08T11:00:47.725Z,4790.00
2023-03-08T11:05:47.661Z,5567.00
2023-03-08T11:10:47.597Z,5806.00
2023-03-08T11:15:47.610Z,5725.00
2023-03-08T11:20:47.486Z,5362.00
2023-03-08T11:25:47.419Z,6515.00
2023-03-08T11:30:47.402Z,6218.00
2023-03-08T11:35:47.369Z,7056.00
2023-03-08T11:40:47.322Z,6377.00
2023-03-08T11:45:47.250Z,5782.00
2023-03-08T11:50:47.173Z,4951.00
2023-03-08T11:55:47.082Z,4740.00
2023-03-08T12:00:47.061Z,4823.00
2023-03-08T12:05:47.086Z,4732.00
2023-03-08T12:10:46.918Z,4764.00
2023-03-08T12:15:46.889Z,4356.00
2023-03-08T12:20:46.846Z,4553.00
2023-03-08T12:25:46.771Z,4859.00
2023-03-08T12:30:46.726Z,5079.00
2023-03-08T12:35:46.789Z,4414.00
2023-03-08T12:40:46.668Z,5246.00
2023-03-08T12:45:46.559Z,6088.00
2023-03-08T12:50:46.626Z,5185.00
2023-03-08T12:55:46.448Z,3499.00
2023-03-08T13:00:46.462Z,3309.00
2023-03-08T13:05:46.361Z,2902.00
2023-03-08T13:10:46.315Z,4293.00
2023-03-08T13:15:46.235Z,4002.00
2023-03-08T13:20:46.209Z,3050.00
2023-03-08T13:25:46.216Z,5108.00
2023-03-08T13:30:46.101Z,3451.00
2023-03-08T13:35:46.067Z,3322.00
2023-03-08T13:40:45.968Z,3662.00
2023-03-08T13:45:45.927Z,2389.00
2023-03-08T13:50:45.876Z,3760.00
2023-03-08T13:55:45.767Z,3158.00
2023-03-08T14:00:45.757Z,2611.00
2023-03-08T14:05:45.738Z,2047.00
2023-03-08T14:10:45.733Z,2247.00
2023-03-08T14:15:45.756Z,2836.00
2023-03-08T14:20:45.528Z,2429.00
2023-03-08T14:25:45.443Z,2540.00
2023-03-08T14:30:45.593Z,2277.00
2023-03-08T14:35:45.346Z,2655.00
2023-03-08T14:40:45.277Z,3296.00
2023-03-08T14:45:45.239Z,4453.00
2023-03-08T14:50:45.129Z,4457.00
2023-03-08T14:55:45.087Z,4800.00
2023-03-08T15:00:44.997Z,4808.00
2023-03-08T15:05:44.927Z,4415.00
2023-03-08T15:10:44.882Z,3900.00
2023-03-08T15:15:44.798Z,4303.00
2023-03-08T15:20:44.788Z,4685.00
2023-03-08T15:25:44.679Z,3951.00
2023-03-08T15:30:44.612Z,3811.00
2023-03-08T15:35:44.617Z,3052.00
2023-03-08T15:40:44.489Z,2847.00
2023-03-08T15:45:44.434Z,2716.00
2023-03-08T15:50:44.363Z,1956.00
2023-03-08T15:55:44.289Z,995.00
2023-03-08T16:00:44.230Z,636.00
2023-03-08T16:05:44.149Z,657.00
2023-03-08T16:10:44.096Z,860.00
2023-03-08T16:15:44.042Z,1420.00
2023-03-08T16:20:43.940Z,1536.00
2023-03-08T16:25:43.894Z,1410.00
2023-03-08T16:30:43.817Z,1039.00
2023-03-08T16:35:43.773Z,838.00
2023-03-08T16:40:43.720Z,623.00
2023-03-08T16:45:43.628Z,330.00
2023-03-08T16:50:43.540Z,210.00
2023-03-08T16:55:43.462Z,126.00
2023-03-08T17:00:43.369Z,70.00
2023-03-08T17:05:43.357Z,42.00
2023-03-08T17:10:43.279Z,29.00
2023-03-08T17:15:43.208Z,19.00
2023-03-08T17:20:43.141Z,10.00
2023-03-08T17:25:43.067Z,2.00
2023-03-08T17:30:42.998Z,0.00
2023-03-08T17:35:43.008Z,0.00
2023-03-08T17:40:42.895Z,0.00
2023-03-08T17:45:42.813Z,0.00
2023-03-08T17:50:42.910Z,0.00
2023-03-08T17:55:42.686Z,0.00
2023-03-08T18:00:42.637Z,0.00
2023-03-08T18:05:42.573Z,0.00
2023-03-08T18:10:42.516Z,0.00
2023-03-08T18:15:42.448Z,0.00
2023-03-08T18:20:42.347Z,0.00
2023-03-08T18:25:42.302Z,0.00
2023-03-08T18:30:42.208Z,0.00
2023-03-08T18:35:42.205Z,0.00
2023-03-08T18:40:42.084Z,0.00
2023-03-08T18:45:42.033Z,0.00
2023-03-08T18:50:41.980Z,0.00
2023-03-08T18:55:41.877Z,0.00
2023-03-08T19:00:41.875Z,0.00
2023-03-08T19:05:41.751Z,0.00
2023-03-08T19:10:41.692Z,0.00
2023-03-08T19:15:41.616Z,0.00
2023-03-08T19:20:41.563Z,0.00
2023-03-08T19:25:41.497Z,0.00
2023-03-08T19:30:41.438Z,0.00
2023-03-08T19:35:41.387Z,0.00
2023-03-08T19:40:41.356Z,0.00
2023-03-08T19:45:41.247Z,0.00
2023-03-08T19:50:41.202Z,0.00
2023-03-08T19:55:41.141Z,0.00
2023-03-08T20:00:41.086Z,0.00
2023-03-08T20:05:41.092Z,0.00
2023-03-08T20:10:40.930Z,0.00
2023-03-08T20:15:40.888Z,0.00
2023-03-08T20:20:40.815Z,0.00
2023-03-08T20:25:40.746Z,0.00
2023-03-08T20:30:40.704Z,0.00
2023-03-08T20:35:40.655Z,0.00
2023-03-08T20:40:40.596Z,0.00
2023-03-08T20:45:40.533Z,0.00
2023-03-08T20:50:40.416Z,0.00
2023-03-08T20:55:40.384Z,0.00
2023-03-08T21:00:41.480Z,0.00
2023-03-08T21:05:40.260Z,0.00
2023-03-08T21:10:40.170Z,0.00
2023-03-08T21:15:40.135Z,0.00
2023-03-08T21:20:40.068Z,0.00
2023-03-08T21:25:39.971Z,0.00
2023-03-08T21:30:39.924Z,0.00
2023-03-08T21:35:39.893Z,0.00
2023-03-08T21:40:39.793Z,0.00
2023-03-08T21:45:39.710Z,0.00
2023-03-08T21:50:39.661Z,0.00
2023-03-08T21:55:39.606Z,0.00
2023-03-08T22:00:39.551Z,0.00
2023-03-08T22:05:39.482Z,0.00
2023-03-08T22:10:39.415Z,0.00
2023-03-08T22:15:39.350Z,0.00
2023-03-08T22:20:39.305Z,0.00
2023-03-08T22:25:39.196Z,0.00
2023-03-08T22:30:39.136Z,0.00
2023-03-08T22:35:39.116Z,0.00
2023-03-08T22:40:39.024Z,0.00
2023-03-08T22:45:38.991Z,0.00
2023-03-08T22:50:38.906Z,0.00
2023-03-08T22:55:38.829Z,0.00
2023-03-08T23:00:38.785Z,0.00
2023-03-08T23:05:38.693Z,0.00
2023-03-08T23:10:38.637Z,0.00
2023-03-08T23:15:39.403Z,0.00
2023-03-08T23:20:38.509Z,0.00
2023-03-08T23:25:38.451Z,0.00
2023-03-08T23:30:38.386Z,0.00
2023-03-08T23:35:38.348Z,0.00
2023-03-08T23:40:38.253Z,0.00
2023-03-08T23:45:38.216Z,0.00
2023-03-08T23:50:38.160Z,0.00
2023-03-08T23:55:38.078Z,0.00
